createdAt,value
2022-12-01T00:01:12.970Z,4.70
2022-12-01T00:06:18.786Z,3.30
2022-12-01T00:11:21.866Z,3.50
2022-12-01T00:16:25.113Z,3.70
2022-12-01T00:21:28.695Z,3.60
2022-12-01T00:26:31.796Z,3.40
2022-12-01T00:31:35.347Z,4.30
2022-12-01T00:36:39.037Z,4.50
2022-12-01T00:41:42.344Z,3.40
2022-12-01T00:46:45.552Z,5.20
2022-12-01T00:51:48.657Z,6.00
2022-12-01T00:56:51.970Z,5.00
2022-12-01T01:01:55.330Z,5.00
2022-12-01T01:06:58.898Z,4.70
2022-12-01T01:12:02.108Z,4.60
2022-12-01T01:17:05.801Z,4.00
2022-12-01T01:22:09.037Z,4.70
2022-12-01T01:27:12.346Z,4.40
2022-12-01T01:32:15.452Z,4.90
2022-12-01T01:37:18.866Z,4.20
2022-12-01T01:42:22.384Z,3.90
2022-12-01T01:47:31.117Z,4.10
2022-12-01T01:52:38.831Z,4.00
2022-12-01T01:57:44.404Z,3.10
2022-12-01T02:02:50.265Z,2.60
2022-12-01T02:07:56.790Z,2.60
2022-12-01T02:13:12.453Z,2.80
2022-12-01T02:18:21.497Z,3.00
2022-12-01T02:23:43.138Z,2.70
2022-12-01T02:29:24.542Z,2.90
2022-12-01T02:34:37.478Z,2.90
2022-12-01T02:40:27.074Z,3.10
2022-12-01T02:45:40.083Z,2.90
2022-12-01T02:50:46.387Z,3.70
2022-12-01T02:55:52.876Z,3.00
2022-12-01T03:01:08.375Z,3.50
2022-12-01T03:06:23.975Z,3.50
2022-12-01T03:11:38.041Z,3.40
2022-12-01T03:16:47.490Z,1.90
2022-12-01T03:22:14.458Z,3.00
2022-12-01T03:27:22.996Z,2.70
2022-12-01T03:32:32.653Z,2.40
2022-12-01T03:37:59.512Z,2.20
2022-12-01T03:43:08.851Z,2.50
2022-12-01T03:48:12.689Z,2.80
2022-12-01T03:53:23.985Z,2.00
2022-12-01T03:58:34.594Z,3.20
2022-12-01T04:03:38.184Z,4.20
2022-12-01T04:08:41.699Z,6.00
2022-12-01T04:13:45.010Z,6.20
2022-12-01T04:18:48.422Z,5.60
2022-12-01T04:24:01.217Z,5.40
2022-12-01T04:29:08.329Z,5.30
2022-12-01T04:34:11.873Z,6.20
2022-12-01T04:39:15.289Z,5.70
2022-12-01T04:44:18.703Z,5.80
2022-12-01T04:49:22.835Z,6.40
2022-12-01T04:54:26.343Z,6.40
2022-12-01T04:59:29.754Z,5.60
2022-12-01T05:04:34.500Z,5.90
2022-12-01T05:09:39.045Z,6.90
2022-12-01T05:14:42.453Z,6.90
2022-12-01T05:20:04.655Z,6.70
2022-12-01T05:25:08.429Z,6.80
2022-12-01T05:30:12.149Z,6.60
2022-12-01T05:35:50.996Z,6.90
2022-12-01T05:40:56.249Z,7.50
2022-12-01T05:45:59.633Z,7.50
2022-12-01T05:51:14.241Z,7.70
2022-12-01T05:56:17.496Z,7.60
2022-12-01T06:01:20.859Z,7.10
2022-12-01T06:06:24.272Z,7.40
2022-12-01T06:11:27.683Z,7.90
2022-12-01T06:16:31.155Z,7.10
2022-12-01T06:21:34.513Z,8.20
2022-12-01T06:26:37.922Z,8.30
2022-12-01T06:31:42.518Z,7.90
2022-12-01T06:36:45.979Z,10.30
2022-12-01T06:41:49.925Z,11.20
2022-12-01T06:46:53.214Z,9.80
2022-12-01T06:51:56.732Z,10.00
2022-12-01T06:57:00.041Z,11.80
2022-12-01T07:02:03.841Z,11.30
2022-12-01T07:07:07.482Z,18.40
2022-12-01T07:12:10.906Z,11.50
2022-12-01T07:17:14.309Z,12.90
2022-12-01T07:22:17.719Z,9.60
2022-12-01T07:27:21.167Z,15.30
2022-12-01T07:32:24.549Z,12.60
2022-12-01T07:37:27.962Z,14.90
2022-12-01T07:42:31.379Z,7.60
2022-12-01T07:47:34.683Z,10.30
2022-12-01T07:52:38.199Z,9.30
2022-12-01T07:57:41.715Z,8.80
2022-12-01T08:02:45.204Z,9.50
2022-12-01T08:07:48.788Z,10.70
2022-12-01T08:12:52.160Z,9.60
2022-12-01T08:17:55.469Z,10.90
2022-12-01T08:23:02.878Z,10.00
2022-12-01T08:28:06.187Z,9.30
2022-12-01T08:33:09.598Z,9.00
2022-12-01T08:38:13.013Z,10.10
2022-12-01T08:43:49.426Z,9.90
2022-12-01T08:48:42.058Z,11.20
2022-12-01T08:53:50.283Z,12.80
2022-12-01T08:58:55.035Z,11.40
2022-12-01T09:04:06.372Z,9.90
2022-12-01T09:09:19.593Z,11.40
2022-12-01T09:14:23.751Z,9.30
2022-12-01T09:19:28.777Z,10.20
2022-12-01T09:24:32.062Z,10.30
2022-12-01T09:29:35.475Z,8.90
2022-12-01T09:34:38.786Z,9.00
2022-12-01T09:39:42.200Z,10.80
2022-12-01T09:44:52.825Z,10.70
2022-12-01T09:49:58.550Z,13.50
2022-12-01T09:55:02.745Z,14.20
2022-12-01T10:00:09.272Z,14.00
2022-12-01T10:05:17.529Z,12.30
2022-12-01T10:10:33.603Z,11.30
2022-12-01T10:15:49.408Z,13.70
2022-12-01T10:21:20.776Z,10.90
2022-12-01T10:26:55.217Z,10.70
2022-12-01T10:32:04.675Z,11.60
2022-12-01T10:37:19.193Z,12.60
2022-12-01T10:47:29.558Z,10.90
2022-12-01T10:52:39.110Z,14.90
2022-12-01T10:57:45.872Z,15.00
2022-12-01T11:02:49.721Z,13.00
2022-12-01T11:07:53.523Z,15.40
2022-12-01T11:13:01.775Z,10.90
2022-12-01T11:18:20.139Z,13.20
2022-12-01T11:23:29.963Z,13.70
2022-12-01T11:28:35.056Z,14.30
2022-12-01T11:33:47.480Z,11.70
2022-12-01T11:39:04.102Z,10.80
2022-12-01T11:44:43.591Z,10.30
2022-12-01T11:49:47.450Z,11.90
2022-12-01T11:55:05.565Z,11.40
2022-12-01T12:00:14.502Z,11.30
2022-12-01T12:05:46.055Z,12.10
2022-12-01T12:10:49.340Z,11.70
2022-12-01T12:15:55.852Z,12.50
2022-12-01T12:21:17.803Z,9.40
2022-12-01T12:26:30.839Z,9.50
2022-12-01T12:31:39.986Z,8.90
2022-12-01T12:36:59.783Z,10.40
2022-12-01T12:42:13.640Z,11.40
2022-12-01T12:47:43.072Z,13.40
2022-12-01T12:52:52.011Z,12.50
2022-12-01T12:58:21.634Z,11.70
2022-12-01T13:03:57.306Z,11.70
2022-12-01T13:09:12.697Z,10.30
2022-12-01T13:14:39.783Z,10.70
2022-12-01T13:19:45.709Z,13.10
2022-12-01T13:24:49.560Z,17.20
2022-12-01T13:29:55.040Z,10.30
2022-12-01T13:34:59.767Z,11.10
2022-12-01T13:40:27.860Z,11.60
2022-12-01T13:45:36.904Z,11.30
2022-12-01T13:50:44.002Z,11.70
2022-12-01T13:55:58.578Z,14.90
2022-12-01T14:06:28.751Z,13.50
2022-12-01T14:11:34.947Z,13.40
2022-12-01T14:16:53.639Z,16.40
2022-12-01T14:21:57.857Z,16.10
2022-12-01T14:27:02.887Z,16.80
2022-12-01T14:32:09.473Z,17.30
2022-12-01T14:37:17.804Z,16.10
2022-12-01T14:42:57.667Z,18.70
2022-12-01T14:48:06.460Z,13.70
2022-12-01T14:53:32.762Z,14.50
2022-12-01T14:58:36.276Z,17.80
2022-12-01T15:03:39.583Z,20.60
2022-12-01T15:08:53.295Z,16.60
2022-12-01T15:14:02.938Z,16.20
2022-12-01T15:19:23.070Z,15.40
2022-12-01T15:24:30.860Z,15.20
2022-12-01T15:29:45.902Z,14.20
2022-12-01T15:34:53.624Z,12.20
2022-12-01T15:40:47.782Z,12.60
2022-12-01T15:45:29.581Z,11.30
2022-12-01T15:50:45.976Z,11.70
2022-12-01T15:55:57.138Z,15.40
2022-12-01T16:01:10.239Z,14.90
2022-12-01T16:06:14.104Z,20.80
2022-12-01T16:11:19.274Z,20.90
2022-12-01T16:16:39.352Z,21.90
2022-12-01T16:21:46.666Z,20.70
2022-12-01T16:26:53.872Z,21.00
2022-12-01T16:32:26.150Z,18.30
2022-12-01T16:37:30.084Z,19.60
2022-12-01T16:42:33.288Z,18.50
2022-12-01T16:47:36.708Z,14.40
2022-12-01T16:52:44.683Z,22.80
2022-12-01T16:57:48.752Z,20.40
2022-12-01T17:02:53.955Z,17.80
2022-12-01T17:07:57.506Z,16.30
2022-12-01T17:13:01.038Z,16.50
2022-12-01T17:18:04.710Z,14.00
2022-12-01T17:23:08.608Z,15.50
2022-12-01T17:28:12.301Z,18.80
2022-12-01T17:33:15.717Z,18.30
2022-12-01T17:38:19.131Z,17.40
2022-12-01T17:43:23.468Z,16.50
2022-12-01T17:53:30.497Z,15.80
2022-12-01T17:58:34.008Z,18.60
2022-12-01T18:03:37.320Z,20.10
2022-12-01T18:08:41.966Z,16.30
2022-12-01T18:13:48.202Z,16.70
2022-12-01T18:18:51.552Z,18.10
2022-12-01T18:23:57.486Z,16.90
2022-12-01T18:29:07.437Z,15.60
2022-12-01T18:34:12.238Z,15.80
2022-12-01T18:39:16.777Z,15.20
2022-12-01T18:44:20.292Z,16.30
2022-12-01T18:49:23.709Z,15.50
2022-12-01T18:54:27.226Z,14.60
2022-12-01T18:59:30.738Z,12.90
2022-12-01T19:04:34.054Z,15.60
2022-12-01T19:09:37.460Z,11.40
2022-12-01T19:14:40.973Z,14.40
2022-12-01T19:19:44.593Z,13.10
2022-12-01T19:24:50.428Z,14.60
2022-12-01T19:29:54.150Z,14.60
2022-12-01T19:34:57.911Z,11.20
2022-12-01T19:40:01.321Z,12.20
2022-12-01T19:45:06.962Z,11.70
2022-12-01T19:50:10.909Z,14.10
2022-12-01T19:55:14.123Z,15.90
2022-12-01T20:00:18.547Z,15.20
2022-12-01T20:10:25.279Z,16.80
2022-12-01T20:15:28.896Z,16.10
2022-12-01T20:20:32.207Z,13.90
2022-12-01T20:25:36.029Z,13.10
2022-12-01T20:30:40.879Z,12.70
2022-12-01T20:35:44.498Z,14.00
2022-12-01T20:40:51.338Z,12.30
2022-12-01T20:45:55.139Z,16.80
2022-12-01T20:51:03.188Z,20.10
2022-12-01T20:56:09.133Z,15.00
2022-12-01T21:01:15.809Z,16.30
2022-12-01T21:06:20.773Z,14.30
2022-12-01T21:11:47.196Z,15.50
2022-12-01T21:16:55.220Z,16.10
2022-12-01T21:21:59.147Z,14.30
2022-12-01T21:27:14.023Z,12.40
2022-12-01T21:32:19.078Z,15.00
2022-12-01T21:37:24.886Z,17.20
2022-12-01T21:42:31.355Z,13.70
2022-12-01T21:47:35.366Z,13.90
2022-12-01T21:52:42.050Z,18.50
2022-12-01T21:57:47.312Z,15.30
2022-12-01T22:02:52.999Z,14.00
2022-12-01T22:08:13.280Z,12.70
2022-12-01T22:13:16.589Z,12.20
2022-12-01T22:18:25.015Z,9.70
2022-12-01T22:23:36.420Z,13.30
2022-12-01T22:28:39.834Z,13.10
2022-12-01T22:33:43.146Z,12.80
2022-12-01T22:38:46.558Z,13.40
2022-12-01T22:43:52.226Z,13.10
2022-12-01T22:48:57.070Z,10.60
2022-12-01T22:54:22.295Z,12.60
2022-12-01T22:59:36.152Z,13.30
2022-12-01T23:04:41.697Z,13.20
2022-12-01T23:09:45.334Z,12.30
2022-12-01T23:14:51.941Z,11.40
2022-12-01T23:20:24.927Z,12.20
2022-12-01T23:25:28.854Z,11.30
2022-12-01T23:30:32.473Z,11.30
2022-12-01T23:35:45.824Z,12.00
2022-12-01T23:40:51.524Z,10.30
2022-12-01T23:46:18.239Z,11.30
2022-12-01T23:51:31.178Z,11.70
2022-12-01T23:56:39.397Z,10.20
